Time;durP1;ratioP1;P1;durP2;ratioP2;P2;SDS_P1;SDS_P2;PMS_P1;PMS_P2;Temp;Humidity;BMP_temperature;BMP_pressure;BME280_temperature;BME280_humidity;BME280_pressure;Samples;Min_cycle;Max_cycle;Signal;HPM_P1;HPM_P2
2023/01/03 00:01:32;;;;;;;;;;;;;;;5.73;100.00;102562.22;5026392;28;19910;-79
2023/01/03 00:03:58;;;;;;;;;;;;;;;5.72;100.00;102562.22;5028653;28;20001;-79
2023/01/03 00:06:25;;;;;;;;;;;;;;;5.70;100.00;102561.34;5029760;28;20135;-79
2023/01/03 00:08:51;;;;;;;;;;;;;;;5.68;100.00;102558.72;5025188;28;19921;-79
2023/01/03 00:11:18;;;;;;;;;;;;;;;5.67;100.00;102564.78;5026022;28;19925;-79
2023/01/03 00:13:44;;;;;;;;;;;;;;;5.66;100.00;102565.66;5027183;28;19929;-79
2023/01/03 00:16:16;;;;;;;;;;;;;;;5.64;100.00;102562.16;5029853;28;19913;-79
2023/01/03 00:18:42;;;;;;;;;;;;;;;5.63;100.00;102556.97;5028041;28;19921;-79
2023/01/03 00:21:07;;;;;;;;;;;;;;;5.61;100.00;102566.47;5022792;28;20209;-79
2023/01/03 00:23:32;;;;;;;;;;;;;;;5.60;100.00;102562.13;5019833;28;20028;-79
2023/01/03 00:25:57;;;;;;;;;;;;;;;5.57;100.00;102553.44;5001708;28;19925;-79
2023/01/03 00:28:23;;;;;;;;;;;;;;;5.57;100.00;102562.97;5019911;28;20204;-79
2023/01/03 00:30:48;;;;;;;;;;;;;;;5.55;100.00;102560.38;5017599;28;19951;-79
2023/01/03 00:33:13;;;;;;;;;;;;;;;5.53;100.00;102566.38;5019363;28;19980;-79
2023/01/03 00:35:38;;;;;;;;;;;;;;;5.51;100.00;102561.22;5017475;28;19936;-79
2023/01/03 00:38:03;;;;;;;;;;;;;;;5.50;100.00;102562.06;5018805;28;19925;-79
2023/01/03 00:40:29;;;;;;;;;;;;;;;5.49;100.00;102562.03;5035205;28;20202;-79
2023/01/03 00:45:38;;;;;;;;;;;;;;;5.46;100.00;102573.28;5027209;28;19939;-79
2023/01/03 00:48:03;;;;;;;;;;;;;;;5.45;100.00;102574.13;5019391;28;20012;-79
2023/01/03 00:50:28;;;;;;;;;;;;;;;5.44;100.00;102574.13;5032327;28;19917;-79
2023/01/03 00:52:54;;;;;;;;;;;;;;;5.44;100.00;102584.50;5018651;28;20220;-79
2023/01/03 00:55:19;;;;;;;;;;;;;;;5.42;100.00;102581.94;5022509;28;19914;-79
2023/01/03 00:57:45;;;;;;;;;;;;;;;5.42;100.00;102570.63;5022497;28;19995;-79
2023/01/03 01:00:10;;;;;;;;;;;;;;;5.39;100.00;102579.28;5026173;28;20204;-79
2023/01/03 01:02:35;;;;;;;;;;;;;;;5.38;100.00;102569.75;5006110;28;20258;-79
2023/01/03 01:05:01;;;;;;;;;;;;;;;5.38;100.00;102577.53;5028522;28;19925;-79
2023/01/03 01:07:26;;;;;;;;;;;;;;;5.36;100.00;102569.72;5017892;28;19964;-79
2023/01/03 01:09:52;;;;;;;;;;;;;;;5.36;100.00;102568.84;5024846;28;19987;-79
2023/01/03 01:12:17;;;;;;;;;;;;;;;5.35;100.00;102572.34;5026564;28;19918;-79
2023/01/03 01:14:42;;;;;;;;;;;;;;;5.33;100.00;102572.31;5020627;28;19963;-79
2023/01/03 01:17:08;;;;;;;;;;;;;;;5.33;100.00;102572.31;5018833;28;19925;-79
2023/01/03 01:19:40;;;;;;;;;;;;;;;5.33;100.00;102574.91;5018348;28;20004;-79
2023/01/03 01:22:06;;;;;;;;;;;;;;;5.31;100.00;102571.44;5021526;28;19913;-79
2023/01/03 01:24:31;;;;;;;;;;;;;;;5.31;100.00;102576.63;5018639;28;19918;-79
2023/01/03 01:26:56;;;;;;;;;;;;;;;5.30;100.00;102569.69;5017738;28;19926;-79
2023/01/03 01:29:22;;;;;;;;;;;;;;;5.30;100.00;102579.22;5017275;28;19923;-79
2023/01/03 01:31:48;;;;;;;;;;;;;;;5.28;100.00;102576.59;5017897;28;19909;-79
2023/01/03 01:34:13;;;;;;;;;;;;;;;5.28;100.00;102584.38;5018751;28;19910;-79
2023/01/03 01:36:40;;;;;;;;;;;;;;;5.26;100.00;102570.53;5016608;28;19992;-79
2023/01/03 01:39:10;;;;;;;;;;;;;;;5.24;100.00;102574.84;5017065;28;19917;-79
2023/01/03 01:44:38;;;;;;;;;;;;;;;5.23;100.00;102582.59;5031487;28;20259;-79
2023/01/03 01:47:04;;;;;;;;;;;;;;;5.22;100.00;102575.66;5038174;28;20120;-79
2023/01/03 01:49:30;;;;;;;;;;;;;;;5.21;100.00;102581.72;5045616;28;19925;-79
2023/01/03 01:51:55;;;;;;;;;;;;;;;5.21;100.00;102589.53;5036718;28;19932;-79
2023/01/03 01:54:20;;;;;;;;;;;;;;;5.19;100.00;102594.69;5037141;28;20310;-79
2023/01/03 01:56:47;;;;;;;;;;;;;;;5.17;100.00;102593.81;5034439;28;20251;-79
2023/01/03 01:59:13;;;;;;;;;;;;;;;5.16;100.00;102594.66;5037526;28;19921;-79
2023/01/03 02:04:41;;;;;;;;;;;;;;;5.13;100.00;102600.69;5019695;28;20263;-79
2023/01/03 02:07:06;;;;;;;;;;;;;;;5.11;100.00;102607.59;5029371;28;19933;-79
2023/01/03 02:09:34;;;;;;;;;;;;;;;5.10;100.00;102605.84;5022690;28;20148;-79
2023/01/03 02:15:23;;;;;;;;;;;;;;;5.08;100.00;102610.16;5034734;28;19924;-79
2023/01/03 02:17:52;;;;;;;;;;;;;;;5.08;100.00;102601.50;5028997;28;19924;-79
2023/01/03 02:20:20;;;;;;;;;;;;;;;5.06;100.00;102598.00;5017535;28;19917;-79
2023/01/03 02:22:58;;;;;;;;;;;;;;;5.05;100.00;102604.94;5017176;28;19924;-79
2023/01/03 02:25:23;;;;;;;;;;;;;;;5.04;100.00;102594.53;5015728;28;19951;-79
2023/01/03 02:28:03;;;;;;;;;;;;;;;5.02;100.00;102591.94;5017123;28;19917;-79
2023/01/03 02:30:28;;;;;;;;;;;;;;;5.00;100.00;102588.41;5017383;28;19918;-79
2023/01/03 02:33:06;;;;;;;;;;;;;;;4.99;100.00;102586.69;5017318;28;19921;-79
2023/01/03 02:35:43;;;;;;;;;;;;;;;4.98;100.00;102582.34;5017473;28;20013;-79
2023/01/03 02:38:11;;;;;;;;;;;;;;;4.97;100.00;102585.81;5032820;28;19928;-79
2023/01/03 02:40:44;;;;;;;;;;;;;;;4.94;100.00;102590.97;5016567;28;19948;-79
2023/01/03 02:43:16;;;;;;;;;;;;;;;4.94;100.00;102596.16;5018732;28;20186;-79
2023/01/03 02:45:41;;;;;;;;;;;;;;;4.91;100.00;102589.22;5036824;28;19921;-79
2023/01/03 02:48:17;;;;;;;;;;;;;;;4.90;100.00;102595.25;5037156;28;20200;-79
2023/01/03 02:50:46;;;;;;;;;;;;;;;4.90;100.00;102597.00;5036479;28;19917;-79
2023/01/03 02:53:14;;;;;;;;;;;;;;;4.87;100.00;102587.41;5036886;28;19909;-79
2023/01/03 02:55:41;;;;;;;;;;;;;;;4.86;100.00;102584.81;5028272;28;19920;-79
2023/01/03 02:58:09;;;;;;;;;;;;;;;4.85;100.00;102588.28;5036820;28;19909;-79
2023/01/03 03:00:40;;;;;;;;;;;;;;;4.85;100.00;102588.28;5027850;28;19976;-79
2023/01/03 03:03:08;;;;;;;;;;;;;;;4.82;100.00;102589.13;5017010;28;20159;-79
2023/01/03 03:05:41;;;;;;;;;;;;;;;4.82;100.00;102599.50;5016332;28;19925;-79
2023/01/03 03:08:06;;;;;;;;;;;;;;;4.80;100.00;102591.69;5019959;28;19920;-79
2023/01/03 03:13:35;;;;;;;;;;;;;;;4.77;100.00;102586.47;5034704;28;19963;-79
2023/01/03 03:16:04;;;;;;;;;;;;;;;4.75;100.00;102588.16;5035234;28;19920;-79
2023/01/03 03:18:55;;;;;;;;;;;;;;;4.74;100.00;102585.56;5023900;28;19956;-79
2023/01/03 03:26:57;;;;;;;;;;;;;;;4.69;100.00;102584.63;5016049;28;19956;-78
2023/01/03 03:29:24;;;;;;;;;;;;;;;4.67;100.00;102584.59;5024964;28;19913;-78
2023/01/03 03:31:50;;;;;;;;;;;;;;;4.66;100.00;102575.09;5035373;28;19932;-78
2023/01/03 03:34:30;;;;;;;;;;;;;;;4.65;100.00;102569.88;5027528;28;19917;-78
2023/01/03 03:37:01;;;;;;;;;;;;;;;4.64;100.00;102568.13;5035776;28;19917;-78
2023/01/03 03:45:15;;;;;;;;;;;;;;;4.58;100.00;102563.72;5023726;28;19916;-78
2023/01/03 03:47:53;;;;;;;;;;;;;;;4.58;100.00;102579.31;5016200;28;19940;-78
2023/01/03 03:50:33;;;;;;;;;;;;;;;4.56;100.00;102571.50;5030708;28;19984;-78
2023/01/03 03:53:02;;;;;;;;;;;;;;;4.57;100.00;102574.97;5035499;28;20247;-78
2023/01/03 03:55:53;;;;;;;;;;;;;;;4.56;100.00;102575.81;5024336;28;19915;-78
2023/01/03 03:58:20;;;;;;;;;;;;;;;4.55;100.00;102579.28;5033202;28;19996;-78
2023/01/03 04:00:47;;;;;;;;;;;;;;;4.55;100.00;102584.47;5020801;28;19924;-78
2023/01/03 04:03:13;;;;;;;;;;;;;;;4.55;100.00;102587.06;5016012;28;19913;-78
2023/01/03 04:05:39;;;;;;;;;;;;;;;4.53;100.00;102586.16;5028374;28;20007;-78
2023/01/03 04:08:05;;;;;;;;;;;;;;;4.53;100.00;102594.84;5034162;28;19944;-78
2023/01/03 04:10:30;;;;;;;;;;;;;;;4.53;100.00;102591.34;5031566;28;20115;-78
2023/01/03 04:12:56;;;;;;;;;;;;;;;4.52;100.00;102593.06;5033850;28;20228;-78
2023/01/03 04:15:21;;;;;;;;;;;;;;;4.52;100.00;102594.81;5032311;28;19992;-78
2023/01/03 04:17:46;;;;;;;;;;;;;;;4.52;100.00;102598.25;5034995;28;19924;-78
2023/01/03 04:20:12;;;;;;;;;;;;;;;4.51;100.00;102596.53;5021361;28;20204;-78
2023/01/03 04:22:38;;;;;;;;;;;;;;;4.51;100.00;102586.16;5016095;28;20357;-79
2023/01/03 04:25:03;;;;;;;;;;;;;;;4.51;100.00;102585.25;5023918;28;19928;-78
2023/01/03 04:27:29;;;;;;;;;;;;;;;4.51;100.00;102587.88;5019307;28;19922;-78
2023/01/03 04:29:54;;;;;;;;;;;;;;;4.51;100.00;102587.88;5024147;28;19953;-78
2023/01/03 04:32:19;;;;;;;;;;;;;;;4.50;100.00;102573.16;5038178;28;19976;-78
2023/01/03 04:34:45;;;;;;;;;;;;;;;4.49;100.00;102581.78;5029129;28;19940;-78
2023/01/03 04:37:10;;;;;;;;;;;;;;;4.50;100.00;102584.41;5036242;28;19925;-78
2023/01/03 04:39:35;;;;;;;;;;;;;;;4.49;100.00;102574.88;5031240;28;20251;-78
2023/01/03 04:44:00;;;;;;;;;;;;;;;4.50;100.00;102574.03;5022841;28;19996;-78
2023/01/03 04:44:46;;;;;;;;;;;;;;;4.49;100.00;102574.00;5018733;28;19925;-78
2023/01/03 04:47:11;;;;;;;;;;;;;;;4.49;100.00;102574.00;5020386;28;19930;-78
2023/01/03 04:49:36;;;;;;;;;;;;;;;4.49;100.00;102587.84;5028944;28;19917;-78
2023/01/03 04:52:01;;;;;;;;;;;;;;;4.50;100.00;102584.41;5031140;28;19995;-78
2023/01/03 04:54:27;;;;;;;;;;;;;;;4.49;100.00;102574.00;5029594;28;20019;-78
2023/01/03 04:56:52;;;;;;;;;;;;;;;4.50;100.00;102567.97;5019406;28;19926;-78
2023/01/03 04:59:17;;;;;;;;;;;;;;;4.50;100.00;102574.03;5017862;28;19960;-78
2023/01/03 05:01:50;;;;;;;;;;;;;;;4.49;100.00;102569.69;5022190;28;19928;-78
2023/01/03 05:04:16;;;;;;;;;;;;;;;4.50;100.00;102570.56;5026704;28;20139;-78
2023/01/03 05:06:41;;;;;;;;;;;;;;;4.51;100.00;102565.41;5018610;28;19913;-78
2023/01/03 05:09:07;;;;;;;;;;;;;;;4.50;100.00;102571.44;5036919;28;19983;-78
2023/01/03 05:11:32;;;;;;;;;;;;;;;4.51;100.00;102569.69;5037834;28;19927;-78
2023/01/03 05:13:57;;;;;;;;;;;;;;;4.51;100.00;102569.69;5038214;28;20214;-78
2023/01/03 05:16:22;;;;;;;;;;;;;;;4.51;100.00;102564.50;5038186;28;19937;-78
2023/01/03 05:18:50;;;;;;;;;;;;;;;4.50;100.00;102567.97;5037973;28;19920;-78
2023/01/03 05:26:45;;;;;;;;;;;;;;;4.52;100.00;102564.53;5017576;28;19928;-78
2023/01/03 05:29:11;;;;;;;;;;;;;;;4.53;100.00;102573.19;5018276;28;19917;-78
2023/01/03 05:31:37;;;;;;;;;;;;;;;4.53;100.00;102568.00;5017857;28;19941;-78
2023/01/03 05:34:02;;;;;;;;;;;;;;;4.53;100.00;102562.81;5017677;28;20308;-78
2023/01/03 05:36:27;;;;;;;;;;;;;;;4.54;100.00;102561.97;5017053;28;19921;-79
2023/01/03 05:38:52;;;;;;;;;;;;;;;4.54;100.00;102560.22;5032463;28;20086;-78
2023/01/03 05:41:58;;;;;;;;;;;;;;;4.55;100.00;102559.41;5002882;28;20171;-78
2023/01/03 05:44:03;;;;;;;;;;;;;;;4.55;100.00;102554.19;5032703;28;19970;-78
2023/01/03 05:46:28;;;;;;;;;;;;;;;4.58;100.00;102558.53;5036913;28;20252;-78
2023/01/03 05:48:54;;;;;;;;;;;;;;;4.58;100.00;102563.72;5023911;28;19926;-78
2023/01/03 05:51:19;;;;;;;;;;;;;;;4.58;100.00;102558.53;5032283;28;19921;-78
2023/01/03 05:53:44;;;;;;;;;;;;;;;4.58;100.00;102556.84;5026180;28;19956;-78
2023/01/03 05:56:09;;;;;;;;;;;;;;;4.58;100.00;102551.66;5017617;28;19925;-78
2023/01/03 05:58:35;;;;;;;;;;;;;;;4.60;100.00;102556.84;5025756;28;19929;-78
2023/01/03 06:01:06;;;;;;;;;;;;;;;4.61;100.00;102553.41;5035782;28;20120;-78
2023/01/03 06:03:31;;;;;;;;;;;;;;;4.61;100.00;102554.25;5030685;28;19972;-78
2023/01/03 06:06:00;;;;;;;;;;;;;;;4.63;100.00;102550.81;5016087;28;20149;-78
2023/01/03 06:08:25;;;;;;;;;;;;;;;4.63;100.00;102551.69;5021340;28;19925;-78
2023/01/03 06:10:51;;;;;;;;;;;;;;;4.64;100.00;102552.56;5030342;28;20275;-78
2023/01/03 06:13:16;;;;;;;;;;;;;;;4.65;100.00;102544.78;5014009;28;20227;-78
2023/01/03 06:15:41;;;;;;;;;;;;;;;4.66;100.00;102538.75;5017369;28;19914;-78
2023/01/03 06:18:06;;;;;;;;;;;;;;;4.68;100.00;102546.56;5026274;28;19917;-78
2023/01/03 06:20:32;;;;;;;;;;;;;;;4.68;100.00;102546.56;5018689;28;20279;-78
2023/01/03 06:22:57;;;;;;;;;;;;;;;4.70;100.00;102547.44;5020587;28;19940;-78
2023/01/03 06:25:22;;;;;;;;;;;;;;;4.72;100.00;102563.91;5016901;28;19921;-78
2023/01/03 06:27:48;;;;;;;;;;;;;;;4.72;100.00;102571.69;5016965;28;19937;-78
2023/01/03 06:30:14;;;;;;;;;;;;;;;4.73;100.00;102558.72;5034446;28;19996;-78
2023/01/03 06:32:39;;;;;;;;;;;;;;;4.74;100.00;102557.00;5035221;28;19913;-78
2023/01/03 06:35:05;;;;;;;;;;;;;;;4.74;100.00;102563.06;5029959;28;20342;-78
2023/01/03 06:37:30;;;;;;;;;;;;;;;4.76;100.00;102557.88;5017060;28;19951;-78
2023/01/03 06:39:55;;;;;;;;;;;;;;;4.76;100.00;102550.97;5016579;28;19913;-78
2023/01/03 06:42:39;;;;;;;;;;;;;;;4.77;100.00;102546.66;5016572;28;19914;-78
2023/01/03 06:53:18;;;;;;;;;;;;;;;4.81;100.00;102533.72;5016750;28;19963;-78
2023/01/03 06:55:44;;;;;;;;;;;;;;;4.82;100.00;102545.00;5020864;28;19932;-78
2023/01/03 06:58:10;;;;;;;;;;;;;;;4.84;100.00;102542.38;5035326;28;20168;-78
2023/01/03 07:00:35;;;;;;;;;;;;;;;4.84;100.00;102535.50;5027745;28;19925;-78
2023/01/03 07:03:01;;;;;;;;;;;;;;;4.85;100.00;102536.34;5035952;28;19951;-78
2023/01/03 07:05:26;;;;;;;;;;;;;;;4.86;100.00;102531.19;5029910;28;19982;-78
2023/01/03 07:07:51;;;;;;;;;;;;;;;4.87;100.00;102539.81;5034878;28;19917;-78
2023/01/03 07:10:17;;;;;;;;;;;;;;;4.88;100.00;102544.19;5027647;28;20005;-78
2023/01/03 07:15:26;;;;;;;;;;;;;;;4.92;100.00;102553.72;5024645;28;19932;-78
2023/01/03 07:17:51;;;;;;;;;;;;;;;4.92;100.00;102558.94;5025225;28;19925;-78
2023/01/03 07:20:16;;;;;;;;;;;;;;;4.93;100.00;102553.75;5020351;28;19929;-78
2023/01/03 07:22:42;;;;;;;;;;;;;;;4.93;100.00;102556.34;5016925;28;19921;-78
2023/01/03 07:25:07;;;;;;;;;;;;;;;4.95;100.00;102551.19;5023425;28;19926;-78
2023/01/03 07:27:32;;;;;;;;;;;;;;;4.96;100.00;102552.91;5022853;28;20102;-78
2023/01/03 07:29:58;;;;;;;;;;;;;;;4.96;100.00;102553.75;5022016;28;19980;-78
2023/01/03 07:32:23;;;;;;;;;;;;;;;4.97;100.00;102565.03;5010097;28;19933;-78
2023/01/03 07:34:48;;;;;;;;;;;;;;;4.98;100.00;102553.78;5018848;28;19925;-78
2023/01/03 07:37:13;;;;;;;;;;;;;;;5.00;100.00;102559.84;5033405;28;20062;-78
2023/01/03 07:39:39;;;;;;;;;;;;;;;5.02;100.00;102559.88;5034007;28;19984;-78
2023/01/03 07:45:08;;;;;;;;;;;;;;;5.02;100.00;102555.56;4987876;28;19986;-78
2023/01/03 07:47:33;;;;;;;;;;;;;;;5.02;100.00;102552.97;4984278;28;20261;-78
2023/01/03 07:49:58;;;;;;;;;;;;;;;5.05;100.00;102555.59;4989526;28;20346;-78
2023/01/03 07:52:24;;;;;;;;;;;;;;;5.05;100.00;102559.91;5024202;28;19917;-78
2023/01/03 07:54:49;;;;;;;;;;;;;;;5.07;100.00;102558.19;5028643;28;19925;-78
2023/01/03 07:57:14;;;;;;;;;;;;;;;5.08;100.00;102567.75;5021374;28;20137;-78
2023/01/03 07:59:39;;;;;;;;;;;;;;;5.09;100.00;102565.13;5032748;28;19980;-78
2023/01/03 08:02:05;;;;;;;;;;;;;;;5.10;100.00;102558.25;5034662;28;19971;-78
2023/01/03 08:04:30;;;;;;;;;;;;;;;5.11;100.00;102557.38;5019814;28;19917;-78
2023/01/03 08:06:56;;;;;;;;;;;;;;;5.13;100.00;102559.16;5017280;28;19976;-78
2023/01/03 08:14:50;;;;;;;;;;;;;;;5.15;100.00;102554.84;5029524;28;20208;-78
2023/01/03 08:17:16;;;;;;;;;;;;;;;5.18;100.00;102562.66;5016676;28;20163;-78
2023/01/03 08:19:41;;;;;;;;;;;;;;;5.19;100.00;102572.19;5026153;28;19928;-78
2023/01/03 08:22:06;;;;;;;;;;;;;;;5.21;100.00;102567.00;5028765;28;19918;-78
2023/01/03 08:24:31;;;;;;;;;;;;;;;5.21;100.00;102572.19;5027885;28;19921;-78
2023/01/03 08:26:56;;;;;;;;;;;;;;;5.23;100.00;102564.44;5021740;28;19921;-78
2023/01/03 08:29:22;;;;;;;;;;;;;;;5.23;100.00;102570.47;5022698;28;20312;-78
2023/01/03 08:31:53;;;;;;;;;;;;;;;5.25;100.00;102570.50;5036274;28;20109;-78
2023/01/03 08:34:18;;;;;;;;;;;;;;;5.28;100.00;102578.31;5024892;28;20040;-78
2023/01/03 08:36:50;;;;;;;;;;;;;;;5.28;100.00;102573.13;5027562;28;19933;-78
2023/01/03 08:39:17;;;;;;;;;;;;;;;5.30;100.00;102566.22;5027165;28;19929;-78
2023/01/03 08:41:47;;;;;;;;;;;;;;;5.31;100.00;102567.94;5032379;28;20144;-78
2023/01/03 08:44:12;;;;;;;;;;;;;;;5.31;100.00;102566.25;5037597;28;19925;-78
2023/01/03 08:46:39;;;;;;;;;;;;;;;5.33;100.00;102568.81;5027530;28;19928;-78
2023/01/03 08:49:05;;;;;;;;;;;;;;;5.34;100.00;102570.59;5024463;28;19983;-78
2023/01/03 08:51:30;;;;;;;;;;;;;;;5.36;100.00;102577.50;5043220;28;19917;-78
2023/01/03 08:53:55;;;;;;;;;;;;;;;5.37;100.00;102570.63;5028148;28;19980;-78
2023/01/03 08:56:21;;;;;;;;;;;;;;;5.38;100.00;102570.63;5029160;28;19913;-78
2023/01/03 08:58:46;;;;;;;;;;;;;;;5.39;100.00;102567.16;5033612;28;19925;-78
2023/01/03 09:01:12;;;;;;;;;;;;;;;5.42;100.00;102557.66;5028382;28;19979;-78
2023/01/03 09:03:37;;;;;;;;;;;;;;;5.42;100.00;102566.34;5023750;28;19976;-78
2023/01/03 09:06:03;;;;;;;;;;;;;;;5.43;100.00;102568.06;5033682;28;19933;-78
2023/01/03 09:08:29;;;;;;;;;;;;;;;5.44;100.00;102567.22;5033692;28;19996;-78
2023/01/03 09:10:54;;;;;;;;;;;;;;;5.46;100.00;102560.28;5034140;28;20129;-78
2023/01/03 09:13:19;;;;;;;;;;;;;;;5.48;100.00;102568.09;5038978;28;19924;-78
2023/01/03 09:15:44;;;;;;;;;;;;;;;5.49;100.00;102562.91;5030525;28;19932;-78
2023/01/03 09:18:10;;;;;;;;;;;;;;;5.50;100.00;102569.00;5033455;28;20275;-78
2023/01/03 09:20:35;;;;;;;;;;;;;;;5.51;100.00;102562.91;5038026;28;20192;-78
2023/01/03 09:23:00;;;;;;;;;;;;;;;5.53;100.00;102566.38;5034425;28;20244;-78
2023/01/03 09:25:26;;;;;;;;;;;;;;;5.55;100.00;102557.78;5035043;28;19952;-78
2023/01/03 09:27:51;;;;;;;;;;;;;;;5.56;100.00;102559.50;5036706;28;20463;-78
2023/01/03 09:30:16;;;;;;;;;;;;;;;5.58;100.00;102551.72;5019091;28;19929;-78
2023/01/03 09:32:41;;;;;;;;;;;;;;;5.60;100.00;102554.31;5030367;28;19925;-78
2023/01/03 09:35:07;;;;;;;;;;;;;;;5.61;100.00;102554.34;5027774;28;19925;-78
2023/01/03 09:37:33;;;;;;;;;;;;;;;5.63;100.00;102555.22;5029419;28;19960;-78
2023/01/03 09:39:58;;;;;;;;;;;;;;;5.64;100.00;102556.97;5023109;28;19929;-78
2023/01/03 09:45:12;;;;;;;;;;;;;;;5.68;100.00;102565.66;5024868;28;19967;-78
2023/01/03 09:47:38;;;;;;;;;;;;;;;5.70;100.00;102563.94;5023254;28;19920;-78
2023/01/03 09:50:05;;;;;;;;;;;;;;;5.71;100.00;102565.66;5024241;28;19960;-78
2023/01/03 10:04:04;;;;;;;;;;;;;;;5.80;100.00;102580.47;5015074;28;20196;-78
2023/01/03 10:06:49;;;;;;;;;;;;;;;5.82;100.00;102592.63;5031115;28;20172;-78
2023/01/03 10:09:23;;;;;;;;;;;;;;;5.85;100.00;102594.38;5032774;28;19921;-78
2023/01/03 10:12:02;;;;;;;;;;;;;;;5.85;100.00;102590.03;5026362;28;19920;-78
2023/01/03 10:14:34;;;;;;;;;;;;;;;5.89;100.00;102583.13;5029973;28;19932;-78
2023/01/03 10:17:02;;;;;;;;;;;;;;;5.89;100.00;102588.31;5034418;28;19921;-78
2023/01/03 10:19:42;;;;;;;;;;;;;;;5.90;100.00;102585.75;5027813;28;19917;-78
2023/01/03 10:22:11;;;;;;;;;;;;;;;5.91;100.00;102579.69;5027880;28;19958;-78
2023/01/03 10:24:44;;;;;;;;;;;;;;;5.94;100.00;102587.50;5029682;28;19948;-78
2023/01/03 10:27:14;;;;;;;;;;;;;;;5.94;100.00;102582.28;5029466;28;19985;-78
2023/01/03 10:29:39;;;;;;;;;;;;;;;5.97;100.00;102586.69;5033251;28;20108;-78
2023/01/03 10:32:16;;;;;;;;;;;;;;;5.98;100.00;102585.81;5042687;28;19961;-78
2023/01/03 10:34:41;;;;;;;;;;;;;;;6.00;100.00;102581.50;5023430;28;20038;-78
2023/01/03 10:37:17;;;;;;;;;;;;;;;6.02;100.00;102582.41;5022016;28;20040;-78
2023/01/03 10:39:42;;;;;;;;;;;;;;;6.02;100.00;102590.19;5035015;28;19971;-78
2023/01/03 10:42:07;;;;;;;;;;;;;;;6.04;100.00;102579.78;5033682;28;19913;-78
2023/01/03 10:44:33;;;;;;;;;;;;;;;6.04;100.00;102591.06;5037583;28;19996;-78
2023/01/03 10:47:07;;;;;;;;;;;;;;;6.08;100.00;102589.38;5033060;28;20230;-78
2023/01/03 10:49:32;;;;;;;;;;;;;;;6.08;100.00;102591.97;5030094;28;19928;-79
2023/01/03 10:51:59;;;;;;;;;;;;;;;6.10;100.00;102579.84;5032684;28;19960;-78
2023/01/03 10:54:27;;;;;;;;;;;;;;;6.13;100.00;102585.03;5035695;28;19917;-78
2023/01/03 10:56:53;;;;;;;;;;;;;;;6.13;100.00;102580.72;5031003;28;19921;-78
2023/01/03 10:59:22;;;;;;;;;;;;;;;6.14;100.00;102577.25;5025914;28;19927;-78
2023/01/03 11:02:01;;;;;;;;;;;;;;;6.15;100.00;102576.41;5027828;28;19951;-78
2023/01/03 11:04:28;;;;;;;;;;;;;;;6.17;100.00;102571.22;5030048;28;19921;-78
2023/01/03 11:06:58;;;;;;;;;;;;;;;6.21;100.00;102577.28;5031353;28;20259;-79
2023/01/03 11:09:26;;;;;;;;;;;;;;;6.23;100.00;102567.75;5029205;28;19913;-79
2023/01/03 11:11:52;;;;;;;;;;;;;;;6.23;100.00;102567.75;5028642;28;20234;-78
2023/01/03 11:14:20;;;;;;;;;;;;;;;6.25;100.00;102574.69;5029614;28;20140;-78
2023/01/03 11:16:51;;;;;;;;;;;;;;;6.26;100.00;102566.06;5023879;28;19920;-78
2023/01/03 11:19:19;;;;;;;;;;;;;;;6.27;100.00;102565.16;5029600;28;19983;-78
2023/01/03 11:21:52;;;;;;;;;;;;;;;6.30;100.00;102561.72;5032014;28;19925;-78
2023/01/03 11:24:36;;;;;;;;;;;;;;;6.28;100.00;102548.72;5033091;28;20295;-78
2023/01/03 11:27:07;;;;;;;;;;;;;;;6.31;100.00;102551.34;5029391;28;19948;-78
2023/01/03 11:29:47;;;;;;;;;;;;;;;6.32;100.00;102547.84;5030486;28;19913;-78
2023/01/03 11:32:22;;;;;;;;;;;;;;;6.34;100.00;102553.94;5034797;28;19909;-78
2023/01/03 11:35:02;;;;;;;;;;;;;;;6.36;100.00;102540.94;5025763;28;20032;-78
2023/01/03 11:37:39;;;;;;;;;;;;;;;6.37;100.00;102537.47;5024717;28;19914;-78
2023/01/03 11:40:23;;;;;;;;;;;;;;;6.39;100.00;102533.13;5029236;28;19928;-78
2023/01/03 11:43:05;;;;;;;;;;;;;;;6.41;100.00;102530.53;5024459;28;20023;-79
2023/01/03 11:45:43;;;;;;;;;;;;;;;6.43;100.00;102528.81;5029804;28;19925;-79
2023/01/03 11:48:24;;;;;;;;;;;;;;;6.44;100.00;102521.03;5033214;28;19919;-78
2023/01/03 11:50:57;;;;;;;;;;;;;;;6.47;100.00;102517.53;5027956;28;19915;-79
2023/01/03 11:53:23;;;;;;;;;;;;;;;6.48;100.00;102514.09;5040435;28;19920;-79
2023/01/03 11:56:06;;;;;;;;;;;;;;;6.50;100.00;102521.03;5030591;28;19921;-78
2023/01/03 11:58:43;;;;;;;;;;;;;;;6.52;100.00;102515.84;5038574;28;19987;-79
2023/01/03 12:01:26;;;;;;;;;;;;;;;6.53;100.00;102518.44;5034698;28;19910;-78
2023/01/03 12:03:57;;;;;;;;;;;;;;;6.54;100.00;102514.97;5032573;28;20125;-79
2023/01/03 12:06:31;;;;;;;;;;;;;;;6.56;100.00;102511.50;5028336;28;19932;-79
2023/01/03 12:09:23;;;;;;;;;;;;;;;6.58;100.00;102507.16;5034541;28;19963;-79
2023/01/03 12:12:00;;;;;;;;;;;;;;;6.60;100.00;102498.47;5035909;28;19979;-79
2023/01/03 12:14:30;;;;;;;;;;;;;;;6.61;100.00;102500.22;5033151;28;19945;-79
2023/01/03 12:17:00;;;;;;;;;;;;;;;6.62;100.00;102491.56;5033225;28;19925;-79
2023/01/03 12:19:28;;;;;;;;;;;;;;;6.64;100.00;102494.16;5038260;28;19932;-78
2023/01/03 12:22:12;;;;;;;;;;;;;;;6.66;100.00;102495.06;5043571;28;19975;-79
2023/01/03 12:24:48;;;;;;;;;;;;;;;6.67;100.00;102488.97;5037468;28;20181;-78
2023/01/03 12:27:29;;;;;;;;;;;;;;;6.67;100.00;102491.56;5024201;28;19921;-78
2023/01/03 12:30:17;;;;;;;;;;;;;;;6.69;100.00;102492.44;5024323;28;19913;-78
2023/01/03 12:32:53;;;;;;;;;;;;;;;6.70;100.00;102495.03;5028689;28;19925;-78
2023/01/03 12:35:32;;;;;;;;;;;;;;;6.71;100.00;102493.31;5026356;28;19926;-78
2023/01/03 12:37:58;;;;;;;;;;;;;;;6.72;100.00;102487.25;5032028;28;19920;-79
2023/01/03 12:40:42;;;;;;;;;;;;;;;6.73;100.00;102488.97;5026442;28;20209;-78
2023/01/03 12:43:15;;;;;;;;;;;;;;;6.76;100.00;102482.91;5026507;28;19921;-78
2023/01/03 12:45:49;;;;;;;;;;;;;;;6.78;100.00;102488.97;5026462;28;19956;-79
2023/01/03 12:48:32;;;;;;;;;;;;;;;6.79;100.00;102478.56;5035117;28;19956;-79
2023/01/03 12:50:57;;;;;;;;;;;;;;;6.80;100.00;102469.03;5035839;28;19909;-79
2023/01/03 12:53:36;;;;;;;;;;;;;;;6.82;100.00;102473.38;5023418;28;19926;-78
2023/01/03 12:56:07;;;;;;;;;;;;;;;6.85;100.00;102464.69;5025888;28;19960;-79
2023/01/03 12:58:44;;;;;;;;;;;;;;;6.87;100.00;102465.56;5025416;28;20234;-78
2023/01/03 13:01:14;;;;;;;;;;;;;;;6.87;100.00;102463.81;5026645;28;20059;-79
2023/01/03 13:03:48;;;;;;;;;;;;;;;6.90;100.00;102462.97;5029231;28;19947;-78
2023/01/03 13:06:19;;;;;;;;;;;;;;;6.90;100.00;102466.44;5028939;28;19929;-79
2023/01/03 13:08:48;;;;;;;;;;;;;;;6.92;100.00;102450.81;5025775;28;19921;-79
2023/01/03 13:11:33;;;;;;;;;;;;;;;6.94;100.00;102449.06;5030807;28;19944;-79
2023/01/03 13:14:16;;;;;;;;;;;;;;;6.95;100.00;102449.91;5014001;28;19917;-79
2023/01/03 13:16:43;;;;;;;;;;;;;;;6.96;100.00;102452.53;5032727;28;19921;-79
2023/01/03 13:19:32;;;;;;;;;;;;;;;6.97;100.00;102446.47;5033358;28;19916;-79
2023/01/03 13:22:02;;;;;;;;;;;;;;;6.97;100.00;102436.06;5012624;28;19920;-79
2023/01/03 13:24:44;;;;;;;;;;;;;;;6.99;100.00;102446.47;5030862;28;19948;-78
2023/01/03 13:27:19;;;;;;;;;;;;;;;6.99;100.00;102442.13;5029451;28;20217;-78
2023/01/03 13:29:55;;;;;;;;;;;;;;;7.01;100.00;102436.91;5033171;28;19975;-79
2023/01/03 13:32:20;;;;;;;;;;;;;;;7.02;100.00;102433.44;5030773;28;19928;-78
2023/01/03 13:35:08;;;;;;;;;;;;;;;7.02;100.00;102429.09;5024257;28;19917;-78
2023/01/03 13:37:36;;;;;;;;;;;;;;;7.04;100.00;102429.97;5024716;28;20214;-78
2023/01/03 13:40:16;;;;;;;;;;;;;;;7.04;100.00;102423.88;5025453;28;19960;-78
2023/01/03 13:42:41;;;;;;;;;;;;;;;7.06;100.00;102427.38;5025076;28;20120;-78
2023/01/03 13:45:10;;;;;;;;;;;;;;;7.08;100.00;102428.22;5024966;28;19991;-79
2023/01/03 13:47:55;;;;;;;;;;;;;;;7.09;100.00;102422.13;5021294;28;19931;-79
2023/01/03 13:50:28;;;;;;;;;;;;;;;7.09;100.00;102412.59;5021653;28;20231;-79